createdAt,value
2018-09-22T00:00:02.202Z,2.00
2018-09-22T00:02:30.508Z,1.40
2018-09-22T00:04:59.007Z,2.30
2018-09-22T00:07:27.460Z,2.53
2018-09-22T00:09:55.773Z,2.07
2018-09-22T00:12:24.261Z,1.90
2018-09-22T00:14:52.592Z,2.10
2018-09-22T00:17:20.904Z,2.90
2018-09-22T00:19:49.413Z,2.30
2018-09-22T00:22:18.041Z,2.70
2018-09-22T00:24:46.612Z,4.80
2018-09-22T00:27:14.991Z,2.40
2018-09-22T00:29:43.287Z,3.73
2018-09-22T00:32:11.725Z,2.70
2018-09-22T00:34:40.088Z,2.80
2018-09-22T00:37:08.402Z,3.43
2018-09-22T00:39:36.714Z,3.13
2018-09-22T00:42:05.235Z,4.50
2018-09-22T00:44:33.553Z,3.37
2018-09-22T00:47:01.857Z,3.60
2018-09-22T00:49:30.385Z,4.53
2018-09-22T00:51:58.721Z,3.50
2018-09-22T00:54:27.032Z,4.27
2018-09-22T00:56:55.369Z,4.60
2018-09-22T00:59:23.712Z,4.40
2018-09-22T01:01:52.017Z,4.90
2018-09-22T01:04:20.395Z,4.47
2018-09-22T01:06:48.732Z,4.70
2018-09-22T01:09:17.064Z,3.90
2018-09-22T01:11:45.568Z,4.40
2018-09-22T01:14:13.880Z,4.17
2018-09-22T01:16:42.180Z,4.43
2018-09-22T01:19:10.548Z,4.70
2018-09-22T01:21:38.904Z,4.57
2018-09-22T01:24:07.292Z,4.37
2018-09-22T01:26:35.839Z,5.30
2018-09-22T01:29:04.153Z,5.27
2018-09-22T01:31:32.465Z,6.10
2018-09-22T01:34:00.976Z,5.40
2018-09-22T01:36:29.276Z,5.43
2018-09-22T01:38:57.576Z,5.80
2018-09-22T01:41:25.896Z,6.03
2018-09-22T01:43:54.209Z,6.80
2018-09-22T01:46:22.517Z,5.43
2018-09-22T01:48:50.841Z,6.43
2018-09-22T01:51:19.145Z,5.90
2018-09-22T01:53:47.572Z,5.57
2018-09-22T01:56:15.905Z,5.80
2018-09-22T01:58:44.220Z,6.43
2018-09-22T02:01:12.519Z,6.00
2018-09-22T02:03:40.864Z,6.90
2018-09-22T02:06:09.168Z,5.70
2018-09-22T02:08:37.695Z,5.63
2018-09-22T02:11:06.395Z,5.03
2018-09-22T02:13:34.701Z,5.50
2018-09-22T02:16:03.017Z,6.13
2018-09-22T02:18:31.388Z,5.10
2018-09-22T02:20:59.701Z,5.47
2018-09-22T02:23:28.005Z,5.00
2018-09-22T02:25:56.429Z,5.30
2018-09-22T02:28:24.764Z,6.50
2018-09-22T02:30:53.093Z,4.20
2018-09-22T02:33:21.544Z,4.17
2018-09-22T02:35:49.881Z,4.20
2018-09-22T02:38:18.332Z,4.00
2018-09-22T02:40:46.668Z,4.10
2018-09-22T02:43:14.972Z,3.93
2018-09-22T02:45:43.290Z,3.60
2018-09-22T02:48:11.812Z,4.90
2018-09-22T02:50:40.136Z,5.00
2018-09-22T02:53:08.460Z,4.77
2018-09-22T02:55:36.961Z,4.93
2018-09-22T02:58:05.288Z,6.27
2018-09-22T03:00:33.600Z,5.90
2018-09-22T03:03:02.112Z,6.50
2018-09-22T03:05:30.412Z,6.60
2018-09-22T03:07:58.758Z,6.47
2018-09-22T03:10:27.100Z,6.30
2018-09-22T03:12:55.425Z,6.90
2018-09-22T03:15:23.792Z,6.70
2018-09-22T03:17:52.371Z,7.03
2018-09-22T03:20:20.697Z,7.30
2018-09-22T03:22:49.009Z,7.50
2018-09-22T03:25:17.493Z,7.97
2018-09-22T03:27:45.857Z,8.10
2018-09-22T03:30:14.253Z,7.97
2018-09-22T03:32:42.542Z,6.83
2018-09-22T03:35:10.869Z,6.53
2018-09-22T03:37:39.281Z,7.37
2018-09-22T03:40:07.694Z,7.60
2018-09-22T03:42:36.018Z,6.47
2018-09-22T03:45:04.400Z,6.80
2018-09-22T03:47:33.796Z,6.10
2018-09-22T03:50:02.120Z,5.60
2018-09-22T03:52:30.433Z,4.57
2018-09-22T03:54:58.797Z,4.10
2018-09-22T03:57:27.121Z,4.13
2018-09-22T03:59:55.432Z,3.33
2018-09-22T04:02:23.792Z,3.27
2018-09-22T04:04:52.091Z,2.70
2018-09-22T04:07:20.417Z,3.90
2018-09-22T04:09:48.764Z,2.40
2018-09-22T04:12:17.092Z,2.20
2018-09-22T04:14:45.400Z,2.33
2018-09-22T04:17:13.758Z,2.33
2018-09-22T04:19:42.072Z,2.53
2018-09-22T04:22:10.382Z,2.50
2018-09-22T04:24:38.729Z,1.77
2018-09-22T04:27:07.092Z,1.47
2018-09-22T04:29:35.420Z,2.37
2018-09-22T04:32:03.777Z,2.20
2018-09-22T04:34:32.101Z,2.87
2018-09-22T04:37:00.425Z,2.40
2018-09-22T04:39:28.945Z,3.30
2018-09-22T04:41:57.293Z,2.23
2018-09-22T04:44:25.624Z,2.77
2018-09-22T04:46:54.056Z,1.83
2018-09-22T04:49:22.380Z,3.45
2018-09-22T04:51:50.692Z,2.93
2018-09-22T04:54:19.045Z,2.60
2018-09-22T04:56:47.404Z,3.27
2018-09-22T04:59:15.716Z,3.97
2018-09-22T05:01:44.056Z,3.40
2018-09-22T05:04:12.371Z,3.93
2018-09-22T05:06:40.691Z,4.90
2018-09-22T05:09:11.189Z,4.50
2018-09-22T05:11:39.533Z,5.10
2018-09-22T05:14:08.012Z,5.80
2018-09-22T05:16:36.568Z,5.97
2018-09-22T05:19:05.148Z,7.07
2018-09-22T05:21:33.468Z,5.43
2018-09-22T05:24:01.830Z,5.10
2018-09-22T05:26:30.140Z,5.90
2018-09-22T05:28:58.497Z,5.83
2018-09-22T05:31:26.833Z,6.37
2018-09-22T05:33:55.148Z,5.20
2018-09-22T05:36:23.466Z,5.10
2018-09-22T05:38:51.809Z,4.97
2018-09-22T05:41:20.120Z,5.80
2018-09-22T05:43:48.441Z,4.37
2018-09-22T05:46:16.792Z,5.00
2018-09-22T05:48:45.098Z,5.57
2018-09-22T05:51:13.416Z,4.73
2018-09-22T05:53:41.936Z,4.33
2018-09-22T05:56:10.261Z,4.37
2018-09-22T05:58:38.625Z,4.17
2018-09-22T06:01:07.097Z,3.90
2018-09-22T06:03:35.486Z,4.97
2018-09-22T06:06:03.757Z,4.00
2018-09-22T06:08:32.210Z,4.70
2018-09-22T06:11:00.548Z,5.03
2018-09-22T06:13:28.889Z,4.20
2018-09-22T06:15:57.265Z,3.37
2018-09-22T06:18:25.836Z,4.23
2018-09-22T06:20:54.172Z,3.43
2018-09-22T06:23:22.635Z,3.73
2018-09-22T06:25:50.916Z,3.00
2018-09-22T06:28:19.293Z,3.10
2018-09-22T06:30:47.633Z,3.00
2018-09-22T06:33:15.948Z,3.63
2018-09-22T06:35:44.264Z,3.70
2018-09-22T06:38:12.601Z,2.77
2018-09-22T06:40:40.926Z,3.13
2018-09-22T06:43:09.441Z,2.27
2018-09-22T06:45:37.823Z,3.07
2018-09-22T06:48:06.132Z,2.30
2018-09-22T06:50:34.451Z,3.07
2018-09-22T06:53:03.226Z,2.70
2018-09-22T06:55:31.587Z,3.23
2018-09-22T06:57:59.913Z,2.10
2018-09-22T07:00:28.249Z,2.47
2018-09-22T07:02:56.576Z,1.87
2018-09-22T07:05:24.892Z,2.50
2018-09-22T07:07:53.426Z,2.20
2018-09-22T07:10:21.796Z,1.83
2018-09-22T07:12:50.109Z,1.97
2018-09-22T07:15:18.492Z,3.07
2018-09-22T07:17:46.849Z,3.00
2018-09-22T07:20:15.417Z,3.50
2018-09-22T07:22:49.177Z,3.37
2018-09-22T07:25:17.552Z,2.90
2018-09-22T07:27:45.853Z,4.33
2018-09-22T07:30:14.424Z,4.40
2018-09-22T07:32:42.800Z,3.40
2018-09-22T07:35:11.129Z,3.40
2018-09-22T07:37:39.512Z,3.20
2018-09-22T07:40:07.860Z,4.30
2018-09-22T07:42:36.240Z,4.03
2018-09-22T07:45:04.589Z,4.17
2018-09-22T07:47:32.917Z,2.97
2018-09-22T07:50:01.242Z,4.37
2018-09-22T07:52:29.605Z,3.37
2018-09-22T07:54:58.017Z,2.73
2018-09-22T07:57:27.349Z,3.17
2018-09-22T07:59:55.706Z,2.87
2018-09-22T08:02:24.045Z,3.00
2018-09-22T08:04:52.413Z,3.03
2018-09-22T08:07:21.033Z,2.37
2018-09-22T08:09:49.541Z,3.37
2018-09-22T08:12:17.876Z,2.43
2018-09-22T08:14:46.241Z,2.40
2018-09-22T08:17:14.573Z,2.27
2018-09-22T08:19:42.913Z,1.97
2018-09-22T08:22:11.337Z,2.20
2018-09-22T08:24:39.702Z,2.50
2018-09-22T08:27:08.020Z,2.50
2018-09-22T08:29:36.424Z,2.27
2018-09-22T08:32:04.769Z,2.03
2018-09-22T08:34:33.092Z,2.10
2018-09-22T08:37:01.627Z,2.87
2018-09-22T08:39:29.876Z,2.60
2018-09-22T08:41:58.200Z,1.90
2018-09-22T08:44:26.551Z,1.97
2018-09-22T08:46:54.996Z,2.37
2018-09-22T08:49:23.368Z,2.60
2018-09-22T08:51:51.865Z,1.70
2018-09-22T08:54:20.180Z,2.17
2018-09-22T08:56:48.728Z,1.80
2018-09-22T08:59:17.183Z,2.00
2018-09-22T09:01:45.521Z,2.23
2018-09-22T09:04:13.836Z,2.00
2018-09-22T09:06:42.224Z,1.63
2018-09-22T09:09:11.069Z,2.17
2018-09-22T09:11:39.509Z,1.70
2018-09-22T09:14:07.934Z,2.00
2018-09-22T09:16:36.260Z,1.50
2018-09-22T09:19:04.628Z,1.90
2018-09-22T09:21:32.984Z,1.60
2018-09-22T09:24:02.362Z,2.10
2018-09-22T09:26:30.689Z,1.30
2018-09-22T09:28:59.049Z,1.70
2018-09-22T09:31:27.409Z,1.67
2018-09-22T09:33:55.746Z,1.80
2018-09-22T09:36:24.140Z,2.80
2018-09-22T09:38:58.500Z,1.50
2018-09-22T09:41:26.984Z,1.90
2018-09-22T09:43:55.363Z,2.00
2018-09-22T09:46:24.335Z,2.30
2018-09-22T09:48:52.704Z,2.30
2018-09-22T09:51:21.115Z,2.03
2018-09-22T09:53:49.554Z,1.80
2018-09-22T09:56:18.324Z,2.00
2018-09-22T09:58:46.669Z,1.80
2018-09-22T10:01:15.041Z,1.80
2018-09-22T10:03:43.544Z,1.40
2018-09-22T10:06:11.942Z,1.13
2018-09-22T10:08:40.315Z,2.43
2018-09-22T10:11:08.681Z,1.67
2018-09-22T10:13:36.993Z,1.30
2018-09-22T10:16:05.315Z,1.77
2018-09-22T10:18:33.667Z,1.60
2018-09-22T10:21:01.971Z,1.33
2018-09-22T10:23:30.736Z,1.90
2018-09-22T10:25:59.136Z,1.70
2018-09-22T10:28:27.587Z,1.57
2018-09-22T10:30:55.853Z,2.13
2018-09-22T10:33:24.200Z,2.00
2018-09-22T10:35:52.511Z,1.40
2018-09-22T10:38:20.832Z,1.77
2018-09-22T10:40:50.014Z,3.17
2018-09-22T10:43:18.370Z,2.20
2018-09-22T10:45:46.713Z,1.70
2018-09-22T10:48:15.145Z,1.57
2018-09-22T10:50:43.501Z,2.20
2018-09-22T10:53:11.856Z,1.60
2018-09-22T10:55:40.181Z,1.90
2018-09-22T10:58:08.524Z,2.17
2018-09-22T11:00:43.224Z,2.47
2018-09-22T11:03:11.638Z,2.43
2018-09-22T11:05:39.935Z,2.03
2018-09-22T11:08:08.250Z,2.40
2018-09-22T11:10:36.584Z,2.63
2018-09-22T11:13:04.920Z,2.67
2018-09-22T11:15:33.256Z,2.03
2018-09-22T11:18:03.620Z,2.70
2018-09-22T11:20:31.946Z,2.60
2018-09-22T11:23:00.280Z,2.40
2018-09-22T11:25:28.610Z,2.60
2018-09-22T11:27:56.989Z,1.80
2018-09-22T11:30:25.304Z,2.50
2018-09-22T11:32:53.624Z,3.57
2018-09-22T11:35:23.068Z,2.53
2018-09-22T11:37:51.400Z,2.53
2018-09-22T11:40:19.791Z,2.03
2018-09-22T11:42:48.250Z,2.93
2018-09-22T11:45:16.621Z,2.20
2018-09-22T11:47:44.968Z,2.13
2018-09-22T11:50:13.308Z,2.00
2018-09-22T11:52:41.624Z,2.03
2018-09-22T11:55:09.996Z,2.10
2018-09-22T11:57:38.321Z,2.93
2018-09-22T12:00:07.188Z,2.03
2018-09-22T12:02:35.558Z,1.80
2018-09-22T12:05:03.968Z,2.13
2018-09-22T12:07:32.312Z,2.27
2018-09-22T12:10:00.669Z,2.30
2018-09-22T12:12:29.017Z,2.27
2018-09-22T12:14:57.373Z,1.83
2018-09-22T12:17:25.698Z,2.30
2018-09-22T12:19:54.037Z,2.53
2018-09-22T12:22:22.356Z,2.80
2018-09-22T12:24:50.710Z,3.00
2018-09-22T12:27:19.060Z,2.00
2018-09-22T12:29:47.420Z,2.27
2018-09-22T12:32:15.762Z,2.37
2018-09-22T12:34:44.273Z,2.23
2018-09-22T12:37:12.603Z,1.95
2018-09-22T12:39:40.969Z,2.33
2018-09-22T12:42:09.310Z,2.83
2018-09-22T12:44:37.638Z,3.00
2018-09-22T12:47:06.029Z,2.27
2018-09-22T12:49:34.448Z,2.60
2018-09-22T12:52:02.780Z,2.30
2018-09-22T12:54:31.187Z,1.80
2018-09-22T12:56:59.544Z,2.77
2018-09-22T12:59:27.890Z,2.40
2018-09-22T13:01:56.212Z,3.10
2018-09-22T13:04:24.536Z,1.83
2018-09-22T13:06:52.844Z,3.00
2018-09-22T13:09:21.157Z,1.93
2018-09-22T13:11:49.411Z,2.53
2018-09-22T13:14:17.697Z,2.10
2018-09-22T13:16:45.953Z,2.20
2018-09-22T13:19:14.288Z,2.57
2018-09-22T13:21:42.621Z,2.10
2018-09-22T13:24:11.053Z,2.27
2018-09-22T13:26:39.403Z,2.60
2018-09-22T13:29:07.740Z,2.20
2018-09-22T13:31:36.084Z,2.60
2018-09-22T13:34:04.616Z,1.80
2018-09-22T13:36:33.008Z,2.40
2018-09-22T13:39:01.327Z,1.63
2018-09-22T13:41:29.673Z,1.10
2018-09-22T13:43:58.008Z,1.90
2018-09-22T13:46:26.344Z,1.43
2018-09-22T13:48:54.665Z,2.80
2018-09-22T13:51:23.006Z,1.97
2018-09-22T13:53:51.334Z,1.97
2018-09-22T13:56:19.721Z,2.57
2018-09-22T13:58:48.084Z,3.50
2018-09-22T14:01:16.577Z,2.90
2018-09-22T14:03:45.000Z,2.90
2018-09-22T14:06:13.301Z,2.40
2018-09-22T14:08:41.644Z,2.37
2018-09-22T14:11:09.985Z,2.97
2018-09-22T14:13:38.304Z,2.50
2018-09-22T14:16:06.655Z,2.20
2018-09-22T14:18:35.171Z,3.10
2018-09-22T14:21:03.498Z,2.90
2018-09-22T14:23:31.828Z,2.73
2018-09-22T14:26:00.172Z,2.73
2018-09-22T14:28:29.536Z,2.00
2018-09-22T14:30:57.965Z,2.27
2018-09-22T14:33:26.301Z,2.60
2018-09-22T14:35:54.646Z,2.27
2018-09-22T14:38:22.985Z,2.30
2018-09-22T14:40:51.349Z,3.17
2018-09-22T14:43:19.725Z,2.47
2018-09-22T14:45:48.052Z,2.57
2018-09-22T14:48:16.408Z,2.67
2018-09-22T14:50:44.750Z,3.00
2018-09-22T14:53:13.064Z,2.17
2018-09-22T14:55:41.412Z,3.10
2018-09-22T14:58:09.749Z,2.10
2018-09-22T15:00:38.108Z,2.87
2018-09-22T15:03:06.829Z,2.17
2018-09-22T15:05:35.185Z,2.40
2018-09-22T15:08:03.535Z,2.30
2018-09-22T15:10:31.877Z,2.47
2018-09-22T15:13:00.205Z,2.33
2018-09-22T15:15:28.556Z,2.97
2018-09-22T15:17:56.913Z,2.53
2018-09-22T15:20:25.265Z,3.30
2018-09-22T15:22:53.621Z,2.30
2018-09-22T15:25:21.968Z,2.40
2018-09-22T15:27:50.275Z,2.27
2018-09-22T15:30:18.596Z,2.60
2018-09-22T15:32:46.945Z,2.63
2018-09-22T15:35:15.292Z,3.17
2018-09-22T15:37:43.622Z,3.33
2018-09-22T15:40:11.964Z,3.60
2018-09-22T15:42:40.365Z,2.70
2018-09-22T15:45:09.296Z,3.10
2018-09-22T15:47:37.652Z,2.63
2018-09-22T15:50:06.031Z,3.00
2018-09-22T15:52:34.520Z,3.30
2018-09-22T15:55:02.858Z,2.90
2018-09-22T15:57:31.185Z,3.30
2018-09-22T15:59:59.608Z,2.87
2018-09-22T16:02:27.944Z,3.50
2018-09-22T16:04:56.286Z,2.70
2018-09-22T16:07:24.685Z,2.60
2018-09-22T16:09:54.524Z,2.13
2018-09-22T16:12:22.830Z,2.80
2018-09-22T16:14:51.148Z,2.70
2018-09-22T16:17:19.453Z,1.90
2018-09-22T16:19:47.764Z,2.67
2018-09-22T16:22:16.090Z,2.43
2018-09-22T16:24:44.432Z,4.10
2018-09-22T16:27:12.758Z,3.00
2018-09-22T16:29:41.097Z,2.37
2018-09-22T16:32:09.594Z,2.67
2018-09-22T16:34:38.096Z,2.80
2018-09-22T16:37:06.574Z,3.07
2018-09-22T16:39:34.917Z,2.63
2018-09-22T16:42:03.232Z,2.57
2018-09-22T16:44:31.573Z,3.13
2018-09-22T16:46:59.906Z,2.60
2018-09-22T16:49:28.281Z,2.83
2018-09-22T16:51:56.592Z,2.30
2018-09-22T16:54:24.945Z,3.77
2018-09-22T16:56:53.272Z,2.40
2018-09-22T16:59:21.676Z,3.73
2018-09-22T17:01:50.021Z,2.37
2018-09-22T17:04:18.391Z,3.30
2018-09-22T17:06:46.732Z,3.30
2018-09-22T17:09:15.097Z,3.40
2018-09-22T17:11:43.438Z,2.50
2018-09-22T17:14:11.796Z,2.20
2018-09-22T17:16:40.142Z,3.30
2018-09-22T17:19:09.593Z,2.80
2018-09-22T17:21:37.935Z,2.50
2018-09-22T17:24:06.314Z,2.70
2018-09-22T17:26:34.653Z,3.03
2018-09-22T17:29:02.999Z,3.10
2018-09-22T17:31:31.343Z,2.10
2018-09-22T17:33:59.732Z,2.43
2018-09-22T17:36:28.083Z,3.10
2018-09-22T17:38:57.417Z,3.17
2018-09-22T17:41:25.807Z,3.77
2018-09-22T17:43:54.308Z,3.13
2018-09-22T17:46:22.723Z,3.13
2018-09-22T17:48:51.069Z,2.63
2018-09-22T17:51:19.426Z,3.17
2018-09-22T17:53:47.821Z,3.57
2018-09-22T17:56:16.123Z,4.57
2018-09-22T17:58:44.484Z,2.93
2018-09-22T18:01:12.847Z,3.25
2018-09-22T18:03:41.193Z,3.40
2018-09-22T18:06:09.639Z,3.00
2018-09-22T18:08:37.884Z,3.00
2018-09-22T18:11:06.232Z,3.77
2018-09-22T18:13:34.568Z,3.67
2018-09-22T18:16:02.880Z,3.67
2018-09-22T18:18:31.298Z,4.10
2018-09-22T18:20:59.640Z,4.20
2018-09-22T18:23:28.026Z,4.20
2018-09-22T18:25:56.376Z,3.03
2018-09-22T18:28:24.716Z,3.20
2018-09-22T18:30:53.068Z,2.73
2018-09-22T18:33:21.456Z,3.63
2018-09-22T18:35:49.785Z,3.60
2018-09-22T18:38:18.113Z,3.67
2018-09-22T18:40:46.720Z,4.00
2018-09-22T18:43:15.043Z,3.70
2018-09-22T18:45:44.405Z,3.40
2018-09-22T18:48:12.731Z,3.23
2018-09-22T18:50:41.252Z,3.30
2018-09-22T18:53:09.568Z,3.87
2018-09-22T18:55:37.896Z,4.10
2018-09-22T18:58:07.335Z,4.10
2018-09-22T19:00:35.697Z,4.30
2018-09-22T19:03:04.053Z,4.70
2018-09-22T19:05:32.405Z,3.47
2018-09-22T19:08:00.749Z,3.40
2018-09-22T19:10:29.097Z,4.63
2018-09-22T19:12:58.019Z,3.63
2018-09-22T19:15:43.665Z,3.50
2018-09-22T19:18:45.932Z,3.80
2018-09-22T19:21:17.868Z,3.73
2018-09-22T19:23:51.861Z,3.67
2018-09-22T19:26:24.686Z,3.43
2018-09-22T19:28:59.842Z,3.37
2018-09-22T19:31:31.937Z,5.17
2018-09-22T19:34:04.521Z,4.00
2018-09-22T19:36:37.953Z,4.00
2018-09-22T19:39:30.409Z,3.67
2018-09-22T19:42:08.499Z,3.00
2018-09-22T19:45:39.858Z,3.80
2018-09-22T19:49:11.948Z,3.40
2018-09-22T19:51:45.080Z,3.13
2018-09-22T19:54:13.457Z,3.80
2018-09-22T19:56:41.781Z,2.90
2018-09-22T19:59:10.401Z,4.03
2018-09-22T20:01:38.761Z,3.80
2018-09-22T20:04:07.129Z,3.67
2018-09-22T20:06:35.460Z,4.80
2018-09-22T20:09:05.041Z,3.67
2018-09-22T20:11:33.428Z,3.57
2018-09-22T20:14:01.842Z,3.90
2018-09-22T20:16:30.181Z,3.30
2018-09-22T20:18:58.549Z,4.67
2018-09-22T20:21:26.876Z,2.83
2018-09-22T20:23:55.273Z,3.37
2018-09-22T20:26:23.556Z,4.27
2018-09-22T20:28:51.873Z,3.20
2018-09-22T20:31:20.234Z,2.83
2018-09-22T20:33:48.594Z,2.40
2018-09-22T20:36:16.989Z,2.90
2018-09-22T20:38:45.362Z,3.17
2018-09-22T20:41:13.704Z,2.53
2018-09-22T20:43:42.069Z,3.00
2018-09-22T20:46:10.420Z,2.60
2018-09-22T20:48:38.745Z,2.97
2018-09-22T20:51:06.737Z,2.70
2018-09-22T20:53:35.408Z,2.50
2018-09-22T20:56:03.741Z,2.90
2018-09-22T20:58:32.080Z,2.40
2018-09-22T21:01:00.481Z,2.27
2018-09-22T21:03:28.812Z,2.50
2018-09-22T21:05:57.308Z,2.27
2018-09-22T21:08:26.741Z,3.13
2018-09-22T21:10:55.100Z,3.77
2018-09-22T21:13:23.413Z,3.33
2018-09-22T21:15:51.747Z,3.10
2018-09-22T21:18:20.082Z,2.50
2018-09-22T21:20:48.433Z,2.83
2018-09-22T21:23:16.790Z,2.70
2018-09-22T21:25:45.127Z,2.33
2018-09-22T21:28:13.464Z,2.90
2018-09-22T21:30:41.805Z,3.20
2018-09-22T21:33:10.121Z,2.73
2018-09-22T21:35:38.475Z,3.47
2018-09-22T21:38:07.016Z,4.03
2018-09-22T21:40:35.360Z,4.67
2018-09-22T21:43:03.678Z,4.07
2018-09-22T21:45:32.045Z,3.10
2018-09-22T21:48:00.397Z,3.50
2018-09-22T21:50:28.737Z,4.07
2018-09-22T21:52:57.065Z,4.20
2018-09-22T21:55:25.405Z,3.70
2018-09-22T21:57:53.729Z,4.80
2018-09-22T22:00:22.128Z,4.70
2018-09-22T22:02:50.450Z,3.80
2018-09-22T22:05:18.785Z,3.97
2018-09-22T22:07:47.100Z,3.27
2018-09-22T22:10:15.440Z,3.60
2018-09-22T22:12:43.844Z,3.63
2018-09-22T22:15:12.184Z,4.60
2018-09-22T22:17:40.524Z,3.93
2018-09-22T22:20:08.863Z,3.90
2018-09-22T22:22:37.200Z,3.80
2018-09-22T22:25:05.732Z,3.90
2018-09-22T22:27:34.196Z,3.57
2018-09-22T22:30:02.536Z,3.70
2018-09-22T22:32:30.848Z,3.37
2018-09-22T22:34:59.213Z,6.13
2018-09-22T22:37:27.524Z,3.63
2018-09-22T22:39:55.856Z,4.60
2018-09-22T22:42:24.194Z,3.53
2018-09-22T22:44:52.833Z,3.40
2018-09-22T22:47:21.166Z,2.97
2018-09-22T22:49:49.506Z,3.70
2018-09-22T22:52:17.853Z,3.07
2018-09-22T22:54:46.184Z,3.50
2018-09-22T22:57:14.538Z,3.70
2018-09-22T22:59:42.893Z,3.90
2018-09-22T23:02:11.233Z,3.90
2018-09-22T23:04:39.571Z,4.00
2018-09-22T23:07:07.921Z,3.73
2018-09-22T23:09:36.284Z,3.70
2018-09-22T23:12:04.988Z,4.67
2018-09-22T23:14:33.373Z,4.80
2018-09-22T23:17:01.735Z,3.63
2018-09-22T23:19:30.069Z,4.67
2018-09-22T23:21:58.388Z,4.03
2018-09-22T23:24:26.732Z,4.00
2018-09-22T23:26:56.109Z,5.30
2018-09-22T23:29:24.446Z,4.30
2018-09-22T23:31:52.797Z,4.60
2018-09-22T23:34:21.394Z,4.20
2018-09-22T23:36:49.853Z,3.90
2018-09-22T23:39:18.241Z,4.40
2018-09-22T23:41:46.566Z,4.60
2018-09-22T23:44:15.218Z,4.53
2018-09-22T23:46:43.549Z,5.20
2018-09-22T23:49:11.889Z,4.97
2018-09-22T23:51:40.240Z,4.43
2018-09-22T23:54:08.605Z,3.93
2018-09-22T23:56:36.933Z,4.47
2018-09-22T23:59:05.273Z,5.70
